Time;durP1;ratioP1;P1;durP2;ratioP2;P2;SDS_P1;SDS_P2;PMS_P1;PMS_P2;Temp;Humidity;BMP_temperature;BMP_pressure;BME280_temperature;BME280_humidity;BME280_pressure;Samples;Min_cycle;Max_cycle;Signal;HPM_P1;HPM_P2
2022/02/22 00:00:46;;;;;;;2.20;1.00;;;4.90;99.90;;;;;;4992330;28;20264;-71
2022/02/22 00:03:11;;;;;;;0.83;0.83;;;4.90;99.90;;;;;;4992181;28;20239;-71
2022/02/22 00:05:38;;;;;;;1.47;1.37;;;4.90;99.90;;;;;;4992208;28;20416;-70
2022/02/22 00:08:05;;;;;;;2.40;1.33;;;4.90;99.90;;;;;;4992331;28;20654;-71
2022/02/22 00:10:30;;;;;;;1.90;1.10;;;5.00;99.90;;;;;;4992062;28;20451;-70
2022/02/22 00:12:56;;;;;;;1.23;0.70;;;4.90;99.90;;;;;;4996441;28;20429;-70
2022/02/22 00:15:21;;;;;;;2.37;1.87;;;4.90;99.90;;;;;;5011780;28;20172;-70
2022/02/22 00:17:47;;;;;;;2.00;1.00;;;4.90;99.90;;;;;;5011700;28;20165;-70
2022/02/22 00:20:13;;;;;;;1.43;1.13;;;5.00;99.90;;;;;;5011862;28;20182;-70
2022/02/22 00:22:39;;;;;;;4.93;1.47;;;5.00;99.90;;;;;;5011706;28;20223;-70
2022/02/22 00:25:06;;;;;;;3.30;1.87;;;4.90;99.90;;;;;;5011529;28;20872;-70
2022/02/22 00:27:31;;;;;;;2.30;0.77;;;5.00;99.90;;;;;;5011643;28;20251;-71
2022/02/22 00:29:56;;;;;;;1.47;1.10;;;5.00;99.90;;;;;;5011457;28;20546;-71
2022/02/22 00:32:22;;;;;;;1.20;1.10;;;5.00;99.90;;;;;;5015942;22;20690;-67
2022/02/22 00:34:49;;;;;;;1.43;0.97;;;5.00;99.90;;;;;;4991357;28;20173;-67
2022/02/22 00:37:14;;;;;;;4.80;1.40;;;5.00;99.90;;;;;;4991969;28;20228;-67
2022/02/22 00:39:40;;;;;;;4.83;1.13;;;5.00;99.90;;;;;;4991816;28;20416;-67
2022/02/22 00:42:05;;;;;;;1.70;0.80;;;5.00;99.90;;;;;;4992080;28;20717;-67
2022/02/22 00:44:31;;;;;;;1.23;1.13;;;5.00;99.90;;;;;;4992090;28;20200;-68
2022/02/22 00:46:57;;;;;;;1.50;1.40;;;5.10;99.90;;;;;;4992097;28;20201;-68
2022/02/22 00:49:22;;;;;;;1.23;1.10;;;5.00;99.90;;;;;;4991812;28;21013;-68
2022/02/22 00:51:48;;;;;;;1.37;1.30;;;5.00;99.90;;;;;;4992185;28;20576;-68
2022/02/22 00:54:13;;;;;;;0.80;0.80;;;5.10;99.90;;;;;;4991787;28;20181;-68
2022/02/22 00:56:39;;;;;;;1.00;1.00;;;5.10;99.90;;;;;;4992527;28;20210;-68
2022/02/22 00:59:04;;;;;;;1.77;0.80;;;5.10;99.90;;;;;;4991682;28;20173;-68
2022/02/22 01:01:30;;;;;;;3.07;1.10;;;5.10;99.90;;;;;;4991695;28;20195;-68
2022/02/22 01:03:56;;;;;;;1.10;1.10;;;5.10;99.90;;;;;;4992031;28;20181;-68
2022/02/22 01:06:21;;;;;;;2.80;1.10;;;5.20;99.90;;;;;;4995064;28;20591;-68
2022/02/22 01:08:46;;;;;;;1.27;1.17;;;5.20;99.90;;;;;;4995083;28;20493;-68
2022/02/22 01:11:12;;;;;;;1.57;1.47;;;5.20;99.90;;;;;;4995045;28;20219;-68
2022/02/22 01:13:37;;;;;;;2.20;0.93;;;5.20;99.90;;;;;;4995036;28;20169;-68
2022/02/22 01:16:03;;;;;;;2.40;1.13;;;5.20;99.90;;;;;;4995397;28;20169;-68
2022/02/22 01:18:29;;;;;;;2.10;1.03;;;5.20;99.90;;;;;;4995153;28;20176;-68
2022/02/22 01:20:54;;;;;;;1.27;1.00;;;5.20;99.90;;;;;;4995068;28;20196;-67
2022/02/22 01:23:20;;;;;;;0.60;0.60;;;5.20;99.90;;;;;;4994599;28;20686;-68
2022/02/22 01:25:45;;;;;;;0.87;0.87;;;5.30;99.90;;;;;;4994748;28;20224;-67
2022/02/22 01:28:11;;;;;;;5.10;3.33;;;5.30;99.90;;;;;;4994927;28;20176;-67
2022/02/22 01:30:36;;;;;;;1.10;1.00;;;5.30;99.90;;;;;;4995133;28;20276;-68
2022/02/22 01:33:02;;;;;;;2.90;0.73;;;5.30;99.90;;;;;;4994478;28;20320;-68
2022/02/22 01:35:27;;;;;;;1.33;1.20;;;5.30;99.90;;;;;;4994557;28;20165;-69
2022/02/22 01:37:53;;;;;;;3.10;1.23;;;5.30;99.90;;;;;;4995093;28;20173;-69
2022/02/22 01:40:18;;;;;;;1.00;0.90;;;5.30;99.90;;;;;;4994836;28;20204;-69
2022/02/22 01:42:45;;;;;;;1.63;1.43;;;5.40;99.90;;;;;;4994601;28;20722;-67
2022/02/22 01:45:10;;;;;;;1.67;1.57;;;5.30;99.90;;;;;;4994387;28;20173;-70
2022/02/22 01:47:36;;;;;;;2.77;1.27;;;5.30;99.90;;;;;;4994264;28;20427;-68
2022/02/22 01:50:02;;;;;;;0.83;0.83;;;5.30;99.90;;;;;;4994152;28;20193;-68
2022/02/22 01:52:27;;;;;;;1.67;0.97;;;5.30;99.90;;;;;;4993877;28;20208;-68
2022/02/22 01:54:54;;;;;;;2.60;1.30;;;5.30;99.90;;;;;;4994257;28;20400;-68
2022/02/22 01:57:19;;;;;;;2.20;1.27;;;5.30;99.90;;;;;;4994050;28;20197;-69
2022/02/22 01:59:46;;;;;;;1.40;1.30;;;5.30;99.90;;;;;;4994151;28;20837;-68
2022/02/22 02:02:13;;;;;;;1.20;1.10;;;5.40;99.90;;;;;;4994143;28;20537;-68
2022/02/22 02:04:38;;;;;;;1.50;1.40;;;5.40;99.90;;;;;;4994043;28;20443;-68
2022/02/22 02:07:04;;;;;;;0.70;0.70;;;5.40;99.90;;;;;;4993745;28;20409;-68
2022/02/22 02:09:29;;;;;;;2.80;1.07;;;5.40;99.90;;;;;;4993910;28;20211;-67
2022/02/22 02:11:57;;;;;;;1.40;0.77;;;5.40;99.90;;;;;;4993619;28;20283;-68
2022/02/22 02:14:24;;;;;;;0.90;0.90;;;5.40;99.90;;;;;;4993654;28;20212;-68
2022/02/22 02:16:51;;;;;;;1.70;1.30;;;5.30;99.90;;;;;;4992898;28;20405;-68
2022/02/22 02:19:18;;;;;;;0.80;0.80;;;5.40;99.90;;;;;;4993576;28;20404;-67
2022/02/22 02:21:45;;;;;;;0.60;0.60;;;5.40;99.90;;;;;;4993437;28;20482;-68
2022/02/22 02:24:22;;;;;;;6.27;1.60;;;5.40;99.90;;;;;;4993593;28;20408;-68
2022/02/22 02:26:49;;;;;;;3.77;2.17;;;5.40;99.90;;;;;;4992216;28;20470;-69
2022/02/22 02:29:18;;;;;;;1.73;1.00;;;5.30;99.90;;;;;;4993482;28;20448;-69
2022/02/22 02:31:46;;;;;;;1.40;1.30;;;5.30;99.90;;;;;;4993308;28;20436;-68
2022/02/22 02:34:14;;;;;;;5.20;1.30;;;5.30;99.90;;;;;;4993561;28;20404;-69
2022/02/22 02:36:41;;;;;;;4.20;2.10;;;5.30;99.90;;;;;;4993476;28;20404;-70
2022/02/22 02:39:07;;;;;;;2.10;1.37;;;5.30;99.90;;;;;;4993407;28;20408;-69
2022/02/22 02:41:33;;;;;;;1.43;1.33;;;5.30;99.90;;;;;;4993271;28;20478;-69
2022/02/22 02:44:05;;;;;;;6.00;1.80;;;5.30;99.90;;;;;;4993586;28;20404;-69
2022/02/22 02:46:31;;;;;;;1.20;1.10;;;5.30;99.90;;;;;;4993408;28;20419;-69
2022/02/22 02:48:56;;;;;;;3.50;1.53;;;5.30;99.90;;;;;;4993298;28;20484;-68
2022/02/22 02:51:22;;;;;;;1.43;1.17;;;5.30;99.90;;;;;;4993138;28;20922;-69
2022/02/22 02:53:49;;;;;;;1.20;1.03;;;5.20;99.90;;;;;;4993051;28;20226;-68
2022/02/22 02:56:15;;;;;;;6.23;1.33;;;5.20;99.90;;;;;;4992857;28;20463;-69
2022/02/22 02:58:40;;;;;;;6.80;0.90;;;5.20;99.90;;;;;;4993115;28;20439;-69
2022/02/22 03:01:06;;;;;;;1.33;0.87;;;5.20;99.90;;;;;;4993102;28;20173;-69
2022/02/22 03:03:31;;;;;;;2.63;1.20;;;5.20;99.90;;;;;;4993009;28;20557;-70
2022/02/22 03:05:57;;;;;;;1.40;1.13;;;5.20;99.90;;;;;;4992956;28;20208;-69
2022/02/22 03:08:22;;;;;;;4.73;1.23;;;5.20;99.90;;;;;;4993127;28;20659;-69
2022/02/22 03:10:47;;;;;;;1.57;1.47;;;5.20;99.90;;;;;;4994086;28;20236;-69
2022/02/22 03:13:13;;;;;;;1.47;0.93;;;5.20;99.90;;;;;;4993188;28;20197;-69
2022/02/22 03:15:39;;;;;;;1.30;1.20;;;5.20;99.90;;;;;;4992951;28;20176;-69
2022/02/22 03:18:05;;;;;;;2.43;0.87;;;5.10;99.90;;;;;;4992832;28;20257;-69
2022/02/22 03:20:31;;;;;;;1.03;1.00;;;5.20;99.90;;;;;;4992821;28;20499;-69
2022/02/22 03:22:56;;;;;;;1.70;0.67;;;5.10;99.90;;;;;;4992679;28;20200;-67
2022/02/22 03:25:23;;;;;;;2.03;0.73;;;5.20;99.90;;;;;;4992422;28;20676;-67
2022/02/22 03:27:48;;;;;;;0.80;0.80;;;5.10;99.90;;;;;;4992822;28;20732;-67
2022/02/22 03:30:14;;;;;;;6.43;1.53;;;5.20;99.90;;;;;;4992611;28;20458;-68
2022/02/22 03:32:39;;;;;;;0.90;0.80;;;5.10;99.90;;;;;;4992502;28;20200;-68
2022/02/22 03:35:05;;;;;;;0.60;0.60;;;5.20;99.90;;;;;;4992837;28;20204;-68
2022/02/22 03:37:30;;;;;;;1.87;0.93;;;5.20;99.90;;;;;;4993783;28;20177;-68
2022/02/22 03:39:56;;;;;;;2.60;0.87;;;5.10;99.90;;;;;;4993700;28;20470;-68
2022/02/22 03:42:21;;;;;;;0.50;0.50;;;5.20;99.90;;;;;;4992491;28;20663;-68
2022/02/22 03:44:47;;;;;;;5.33;0.93;;;5.20;99.90;;;;;;4992473;28;20540;-68
2022/02/22 03:47:12;;;;;;;0.80;0.80;;;5.20;99.90;;;;;;4992403;28;20288;-68
2022/02/22 03:49:38;;;;;;;1.37;0.90;;;5.20;99.90;;;;;;4992375;28;20711;-68
2022/02/22 03:52:03;;;;;;;3.23;1.70;;;5.20;99.90;;;;;;4992273;28;20255;-67
2022/02/22 03:54:29;;;;;;;3.90;1.10;;;5.20;99.90;;;;;;4992300;28;20177;-67
2022/02/22 03:56:54;;;;;;;1.40;1.30;;;5.20;99.90;;;;;;4992979;28;20169;-67
2022/02/22 03:59:20;;;;;;;3.80;1.30;;;5.20;99.90;;;;;;4992492;28;20188;-67
2022/02/22 04:01:46;;;;;;;0.70;0.70;;;5.20;99.90;;;;;;4992167;28;20619;-67
2022/02/22 04:04:11;;;;;;;0.80;0.80;;;5.20;99.90;;;;;;4992463;28;20180;-68
2022/02/22 04:06:37;;;;;;;1.40;1.30;;;5.20;99.90;;;;;;4992390;28;20632;-68
2022/02/22 04:09:03;;;;;;;8.90;1.33;;;5.20;99.90;;;;;;4992245;28;20173;-67
2022/02/22 04:11:28;;;;;;;0.77;0.77;;;5.20;99.90;;;;;;4992345;28;20223;-68
2022/02/22 04:13:53;;;;;;;1.73;1.30;;;5.10;99.90;;;;;;4992128;28;20177;-67
2022/02/22 04:16:19;;;;;;;6.27;1.60;;;5.10;99.90;;;;;;4991979;28;20631;-67
2022/02/22 04:18:44;;;;;;;2.40;0.80;;;5.10;99.90;;;;;;4991980;28;20610;-67
2022/02/22 04:21:10;;;;;;;1.10;1.00;;;5.10;99.90;;;;;;4991872;28;20172;-67
2022/02/22 04:23:35;;;;;;;1.80;1.70;;;5.10;99.90;;;;;;4992234;28;20331;-67
2022/02/22 04:26:01;;;;;;;2.90;2.17;;;5.10;99.90;;;;;;4991739;28;20546;-67
2022/02/22 04:28:26;;;;;;;7.10;1.10;;;5.10;99.90;;;;;;4991823;28;20232;-67
2022/02/22 04:30:52;;;;;;;2.30;1.20;;;5.10;99.90;;;;;;4991932;28;20201;-67
2022/02/22 04:33:17;;;;;;;1.90;1.67;;;5.10;99.90;;;;;;4991670;28;20675;-67
2022/02/22 04:35:43;;;;;;;1.83;1.30;;;5.20;99.90;;;;;;4991902;28;20177;-67
2022/02/22 04:38:08;;;;;;;0.80;0.80;;;5.20;99.90;;;;;;4992063;28;20686;-67
2022/02/22 04:40:33;;;;;;;1.67;0.83;;;5.10;99.90;;;;;;4995139;28;20704;-67
2022/02/22 04:42:59;;;;;;;3.60;2.17;;;5.10;99.90;;;;;;4996103;28;20727;-67
2022/02/22 04:45:24;;;;;;;2.13;1.40;;;5.10;99.90;;;;;;4995733;28;20525;-67
2022/02/22 04:47:50;;;;;;;3.53;1.53;;;5.00;99.90;;;;;;4995695;28;20231;-67
2022/02/22 04:50:17;;;;;;;0.97;0.87;;;4.90;99.90;;;;;;4995793;28;20193;-67
2022/02/22 04:52:42;;;;;;;5.50;1.47;;;4.90;99.90;;;;;;4995396;28;20189;-67
2022/02/22 04:55:08;;;;;;;6.40;1.83;;;4.90;99.90;;;;;;4995397;28;20776;-67
2022/02/22 04:57:35;;;;;;;5.80;1.50;;;4.80;99.90;;;;;;4995991;28;20176;-67
2022/02/22 05:00:02;;;;;;;3.10;1.23;;;4.80;99.90;;;;;;4995313;28;20176;-67
2022/02/22 05:02:27;;;;;;;3.97;1.40;;;4.70;99.90;;;;;;4995463;28;20945;-67
2022/02/22 05:04:53;;;;;;;0.80;0.67;;;4.70;99.90;;;;;;4995263;28;20416;-67
2022/02/22 05:07:18;;;;;;;2.80;2.60;;;4.70;99.90;;;;;;4995200;28;20647;-69
2022/02/22 05:09:44;;;;;;;4.87;1.63;;;4.70;99.90;;;;;;4995465;28;20584;-66
2022/02/22 05:12:10;;;;;;;1.17;1.03;;;4.70;99.90;;;;;;4994931;28;20268;-66
2022/02/22 05:14:35;;;;;;;3.50;2.20;;;4.70;99.90;;;;;;4995130;28;20181;-67
2022/02/22 05:17:01;;;;;;;8.87;1.40;;;4.70;99.90;;;;;;4995041;28;20981;-67
2022/02/22 05:19:26;;;;;;;0.80;0.70;;;4.70;99.90;;;;;;4994898;28;20209;-66
2022/02/22 05:21:52;;;;;;;0.80;0.80;;;4.70;99.90;;;;;;4994686;28;20189;-66
2022/02/22 05:24:17;;;;;;;5.03;1.00;;;4.60;99.90;;;;;;4994618;28;20587;-66
2022/02/22 05:26:43;;;;;;;1.43;1.33;;;4.70;99.90;;;;;;4994777;28;20643;-66
2022/02/22 05:29:08;;;;;;;4.00;1.70;;;4.70;99.90;;;;;;4994539;28;20169;-66
2022/02/22 05:31:34;;;;;;;1.57;1.00;;;4.70;99.90;;;;;;4994449;28;20217;-67
2022/02/22 05:33:59;;;;;;;17.87;2.27;;;4.70;99.90;;;;;;4994609;28;20165;-67
2022/02/22 05:36:25;;;;;;;1.37;1.27;;;4.70;99.90;;;;;;4994454;28;20177;-67
2022/02/22 05:38:50;;;;;;;4.07;3.03;;;4.70;99.90;;;;;;4994399;28;20169;-67
2022/02/22 05:41:19;;;;;;;3.37;1.37;;;4.70;99.90;;;;;;4994516;28;20192;-67
2022/02/22 05:43:46;;;;;;;1.77;0.90;;;4.70;99.90;;;;;;4994480;28;20177;-67
2022/02/22 05:46:12;;;;;;;1.10;1.00;;;4.80;99.90;;;;;;4994427;28;20423;-68
2022/02/22 05:48:37;;;;;;;3.70;1.57;;;4.80;99.90;;;;;;4994322;28;20419;-67
2022/02/22 05:51:02;;;;;;;4.97;1.47;;;4.80;99.90;;;;;;4993114;28;20200;-67
2022/02/22 05:53:28;;;;;;;2.23;1.37;;;4.70;99.90;;;;;;4994176;28;20204;-68
2022/02/22 05:55:53;;;;;;;1.20;1.10;;;4.80;99.90;;;;;;4994231;28;20183;-68
2022/02/22 05:58:19;;;;;;;4.53;1.87;;;4.70;99.90;;;;;;4994394;28;20536;-68
2022/02/22 06:00:44;;;;;;;2.70;1.23;;;4.80;99.90;;;;;;4994279;28;20255;-69
2022/02/22 06:03:10;;;;;;;2.47;1.73;;;4.80;99.90;;;;;;4993997;28;20280;-68
2022/02/22 06:05:35;;;;;;;7.63;2.03;;;4.80;99.90;;;;;;4993961;28;20549;-68
2022/02/22 06:08:01;;;;;;;3.17;1.90;;;4.80;99.90;;;;;;4994128;28;20185;-67
2022/02/22 06:10:28;;;;;;;3.27;1.20;;;4.80;99.90;;;;;;4994283;28;20243;-68
2022/02/22 06:12:54;;;;;;;1.60;0.83;;;4.80;99.90;;;;;;4994072;28;20651;-68
2022/02/22 06:15:20;;;;;;;2.80;1.53;;;4.80;99.90;;;;;;4994519;28;20444;-68
2022/02/22 06:17:45;;;;;;;2.37;1.13;;;4.80;99.90;;;;;;4994358;28;20408;-67
2022/02/22 06:20:13;;;;;;;3.37;1.23;;;4.80;99.90;;;;;;4994096;28;20227;-68
2022/02/22 06:22:39;;;;;;;7.63;4.20;;;4.80;99.90;;;;;;4992012;28;20291;-68
2022/02/22 06:25:06;;;;;;;7.30;2.40;;;4.80;99.90;;;;;;4967975;28;20472;-68
2022/02/22 06:27:32;;;;;;;1.50;1.33;;;4.80;99.90;;;;;;4987694;28;20409;-67
2022/02/22 06:29:57;;;;;;;4.57;1.60;;;4.70;99.90;;;;;;4974482;28;20452;-68
2022/02/22 06:32:23;;;;;;;1.60;1.00;;;4.80;99.90;;;;;;4959113;28;20255;-69
2022/02/22 06:34:49;;;;;;;2.30;2.00;;;4.70;99.90;;;;;;4974623;28;20174;-67
2022/02/22 06:37:15;;;;;;;2.97;1.40;;;4.70;99.90;;;;;;4975347;28;20415;-67
2022/02/22 06:39:40;;;;;;;5.67;1.90;;;4.70;99.90;;;;;;4978908;28;20174;-68
2022/02/22 06:42:06;;;;;;;4.87;1.63;;;4.70;99.90;;;;;;4974251;28;20222;-68
2022/02/22 06:44:32;;;;;;;5.00;2.27;;;4.80;99.90;;;;;;4973923;28;20173;-68
2022/02/22 06:46:57;;;;;;;7.00;1.10;;;4.80;99.90;;;;;;4974087;28;20177;-68
2022/02/22 06:49:23;;;;;;;3.13;1.00;;;4.80;99.90;;;;;;4974039;28;20481;-69
2022/02/22 06:51:48;;;;;;;2.97;1.30;;;4.80;99.90;;;;;;4973736;28;20229;-68
2022/02/22 06:54:14;;;;;;;5.17;1.60;;;4.80;99.90;;;;;;4974189;28;20182;-68
2022/02/22 06:56:39;;;;;;;7.07;2.00;;;4.80;99.90;;;;;;4975355;28;20184;-68
2022/02/22 06:59:04;;;;;;;2.40;1.67;;;4.80;99.90;;;;;;4974166;28;20264;-68
2022/02/22 07:01:30;;;;;;;2.30;1.60;;;4.80;99.90;;;;;;4973781;28;20693;-68
2022/02/22 07:03:55;;;;;;;1.57;1.47;;;4.80;99.90;;;;;;4973826;28;20185;-68
2022/02/22 07:06:21;;;;;;;1.97;1.70;;;4.90;99.90;;;;;;4973889;28;20185;-68
2022/02/22 07:08:46;;;;;;;4.10;1.53;;;4.80;99.90;;;;;;4973810;28;20169;-68
2022/02/22 07:11:12;;;;;;;4.13;1.60;;;4.70;99.90;;;;;;4973721;28;20284;-69
2022/02/22 07:13:37;;;;;;;1.53;1.43;;;4.70;99.90;;;;;;4973985;28;20284;-67
2022/02/22 07:16:03;;;;;;;2.83;1.17;;;4.60;99.90;;;;;;4956214;28;20503;-68
2022/02/22 07:18:28;;;;;;;2.50;2.30;;;4.70;99.90;;;;;;4974023;28;20173;-68
2022/02/22 07:20:54;;;;;;;3.47;2.43;;;4.90;99.90;;;;;;4973906;28;20229;-68
2022/02/22 07:23:19;;;;;;;3.70;2.30;;;5.10;99.90;;;;;;4974436;28;20526;-68
2022/02/22 07:25:45;;;;;;;1.00;1.00;;;5.30;99.90;;;;;;4986464;28;20307;-68
2022/02/22 07:28:11;;;;;;;1.90;0.73;;;5.30;99.90;;;;;;4996163;28;20177;-68
2022/02/22 07:30:37;;;;;;;2.40;0.90;;;5.40;99.90;;;;;;4999759;28;20204;-69
2022/02/22 07:33:03;;;;;;;2.43;1.07;;;5.20;99.90;;;;;;5001411;28;20539;-68
2022/02/22 07:35:30;;;;;;;8.07;2.10;;;5.10;99.90;;;;;;4992383;28;20165;-68
2022/02/22 07:37:55;;;;;;;2.17;1.17;;;5.20;99.90;;;;;;4992430;28;20404;-68
2022/02/22 07:40:22;;;;;;;3.13;2.20;;;5.20;99.90;;;;;;4985026;28;20412;-68
2022/02/22 07:42:48;;;;;;;1.50;1.23;;;5.40;99.90;;;;;;4992624;28;20196;-68
2022/02/22 07:45:15;;;;;;;2.80;1.73;;;5.20;99.90;;;;;;4992428;28;20777;-68
2022/02/22 07:47:40;;;;;;;4.57;1.87;;;5.30;99.90;;;;;;4992719;28;20177;-68
2022/02/22 07:50:07;;;;;;;5.83;1.40;;;5.60;99.90;;;;;;4992910;28;20985;-68
2022/02/22 07:52:34;;;;;;;2.50;1.30;;;5.40;99.90;;;;;;4992984;28;20188;-67
2022/02/22 07:55:00;;;;;;;1.40;1.17;;;5.70;99.90;;;;;;4993137;28;20414;-68
2022/02/22 07:57:25;;;;;;;3.70;0.93;;;6.40;99.90;;;;;;4993047;28;20981;-68
2022/02/22 07:59:51;;;;;;;1.60;1.50;;;6.90;99.90;;;;;;4993468;28;20444;-69
2022/02/22 08:02:17;;;;;;;3.90;1.03;;;6.70;99.90;;;;;;4995239;28;20208;-68
2022/02/22 08:04:43;;;;;;;2.83;1.10;;;7.20;99.90;;;;;;4994786;28;20177;-68
2022/02/22 08:07:10;;;;;;;3.33;1.50;;;7.00;99.90;;;;;;4994035;28;20249;-68
2022/02/22 08:09:35;;;;;;;4.50;1.50;;;6.80;99.90;;;;;;4993543;28;20549;-68
2022/02/22 08:12:01;;;;;;;3.47;1.30;;;7.30;99.90;;;;;;4992382;28;20514;-68
2022/02/22 08:14:26;;;;;;;3.97;1.30;;;6.80;99.90;;;;;;4993566;28;20172;-68
2022/02/22 08:16:57;;;;;;;2.60;1.20;;;6.30;99.90;;;;;;4978885;28;20202;-67
2022/02/22 08:19:24;;;;;;;7.43;1.57;;;6.20;99.90;;;;;;4996234;28;20207;-67
2022/02/22 08:21:49;;;;;;;1.00;0.90;;;6.00;99.90;;;;;;4995919;28;20436;-67
2022/02/22 08:24:14;;;;;;;1.17;1.07;;;5.80;99.90;;;;;;4996099;28;20773;-68
2022/02/22 08:26:40;;;;;;;1.73;1.30;;;5.80;99.90;;;;;;4995931;28;20188;-68
2022/02/22 08:29:05;;;;;;;9.27;1.60;;;5.70;99.90;;;;;;4995954;28;20185;-68
2022/02/22 08:31:31;;;;;;;1.63;1.53;;;5.80;99.90;;;;;;5001415;28;20234;-68
2022/02/22 08:33:58;;;;;;;6.63;1.30;;;6.30;99.90;;;;;;5015623;28;20176;-68
2022/02/22 08:36:26;;;;;;;3.03;1.50;;;6.00;99.90;;;;;;5008607;28;20651;-68
2022/02/22 08:38:52;;;;;;;3.77;1.10;;;6.20;99.90;;;;;;4996009;28;20412;-68
2022/02/22 08:41:17;;;;;;;4.40;1.00;;;6.60;99.90;;;;;;4995900;28;20415;-68
2022/02/22 08:43:43;;;;;;;11.23;1.47;;;6.20;99.90;;;;;;4995715;28;20173;-67
2022/02/22 08:46:09;;;;;;;2.30;1.50;;;6.00;99.90;;;;;;4995601;28;20177;-69
2022/02/22 08:48:34;;;;;;;3.80;2.03;;;6.00;99.90;;;;;;4995800;28;20550;-68
2022/02/22 08:51:00;;;;;;;2.90;1.43;;;6.00;99.90;;;;;;4995638;28;20356;-68
2022/02/22 08:53:25;;;;;;;5.77;2.50;;;6.00;99.90;;;;;;4995537;28;20275;-67
2022/02/22 08:55:50;;;;;;;1.93;1.27;;;5.80;99.90;;;;;;4994897;28;20173;-67
2022/02/22 08:58:16;;;;;;;4.77;2.03;;;5.60;99.90;;;;;;4995310;28;20183;-68
2022/02/22 09:00:41;;;;;;;2.20;1.50;;;5.80;99.90;;;;;;4995864;28;20165;-68
2022/02/22 09:03:07;;;;;;;2.27;1.40;;;6.00;99.90;;;;;;4996181;28;20203;-68
2022/02/22 09:05:33;;;;;;;0.97;0.87;;;6.10;99.90;;;;;;4995579;28;20204;-68
2022/02/22 09:08:00;;;;;;;2.50;1.20;;;6.30;99.90;;;;;;4995519;28;20613;-68
2022/02/22 09:10:26;;;;;;;4.30;1.77;;;6.50;99.90;;;;;;4995265;28;20463;-68
2022/02/22 09:12:52;;;;;;;2.87;0.83;;;6.70;99.90;;;;;;4995211;28;20535;-68
2022/02/22 09:15:20;;;;;;;9.07;1.10;;;7.00;99.90;;;;;;4995128;28;20499;-68
2022/02/22 09:17:46;;;;;;;4.27;1.80;;;6.90;99.90;;;;;;4995133;28;20169;-68
2022/02/22 09:20:14;;;;;;;12.97;2.07;;;7.00;99.90;;;;;;4995080;28;20933;-68
2022/02/22 09:22:39;;;;;;;2.17;1.17;;;6.40;99.90;;;;;;4995035;28;20455;-68
2022/02/22 09:25:07;;;;;;;0.90;0.90;;;6.40;99.90;;;;;;4994835;28;20424;-68
2022/02/22 09:27:32;;;;;;;0.80;0.80;;;6.60;99.90;;;;;;5010636;28;20172;-68
2022/02/22 09:29:59;;;;;;;0.93;0.93;;;6.30;99.90;;;;;;5014379;28;20475;-68
2022/02/22 09:32:25;;;;;;;1.13;0.87;;;6.20;99.90;;;;;;4999636;28;20463;-69
2022/02/22 09:34:51;;;;;;;1.80;1.70;;;6.40;99.90;;;;;;4994857;28;20193;-68
2022/02/22 09:37:17;;;;;;;1.83;0.90;;;6.50;99.90;;;;;;4994848;28;20420;-68
2022/02/22 09:39:43;;;;;;;1.00;0.90;;;6.30;99.90;;;;;;4994826;28;20482;-68
2022/02/22 09:42:08;;;;;;;4.00;1.47;;;6.30;99.90;;;;;;4994635;28;20212;-68
2022/02/22 09:44:35;;;;;;;8.53;0.90;;;6.40;99.90;;;;;;4994422;28;20180;-68
2022/02/22 09:47:02;;;;;;;2.20;0.90;;;6.60;99.90;;;;;;4994769;28;20185;-68
2022/02/22 09:49:27;;;;;;;1.63;1.33;;;6.70;99.90;;;;;;4994565;28;20455;-68
2022/02/22 09:51:53;;;;;;;6.30;1.97;;;6.40;99.90;;;;;;4994375;28;20440;-68
2022/02/22 09:54:21;;;;;;;4.30;1.70;;;6.30;99.90;;;;;;4994736;28;20251;-68
2022/02/22 09:56:47;;;;;;;2.60;1.50;;;6.30;99.90;;;;;;4994371;28;20255;-68
2022/02/22 09:59:13;;;;;;;4.40;1.47;;;6.30;99.90;;;;;;4994143;28;20496;-68
2022/02/22 10:01:45;;;;;;;0.63;0.60;;;6.50;99.90;;;;;;4994294;28;20909;-68
2022/02/22 10:04:11;;;;;;;0.80;0.70;;;6.60;99.90;;;;;;4994117;28;20400;-68
2022/02/22 10:06:37;;;;;;;4.53;1.97;;;6.70;99.90;;;;;;4994192;28;20419;-68
2022/02/22 10:09:04;;;;;;;1.73;0.83;;;6.70;99.90;;;;;;4973384;28;20269;-68
2022/02/22 10:11:48;;;;;;;1.03;1.00;;;6.70;99.90;;;;;;4983024;28;20575;-68
2022/02/22 10:14:24;;;;;;;2.47;1.33;;;6.60;99.90;;;;;;4994245;28;20751;-68
2022/02/22 10:16:55;;;;;;;1.43;1.20;;;6.90;99.90;;;;;;4993785;28;20498;-67
2022/02/22 10:19:26;;;;;;;2.40;1.37;;;7.00;99.90;;;;;;4993861;28;20949;-67
2022/02/22 10:21:55;;;;;;;3.53;1.43;;;6.70;99.90;;;;;;4993607;28;20416;-67
2022/02/22 10:24:21;;;;;;;1.73;1.27;;;6.60;99.90;;;;;;4993552;28;20404;-67
2022/02/22 10:26:47;;;;;;;2.93;1.57;;;6.60;99.90;;;;;;4993644;28;20851;-67
2022/02/22 10:29:18;;;;;;;1.40;1.03;;;6.30;99.90;;;;;;4993690;28;20428;-67
2022/02/22 10:31:45;;;;;;;3.97;2.03;;;6.40;99.90;;;;;;5000559;28;20212;-67
2022/02/22 10:34:11;;;;;;;1.67;1.40;;;6.60;99.90;;;;;;5013354;28;20470;-66
2022/02/22 10:36:40;;;;;;;1.77;1.37;;;6.50;99.90;;;;;;5004924;28;20420;-67
2022/02/22 10:39:08;;;;;;;1.90;1.33;;;6.70;99.90;;;;;;4993474;28;20430;-67
2022/02/22 10:41:41;;;;;;;0.90;0.80;;;6.60;99.90;;;;;;4993628;28;20446;-67
2022/02/22 10:44:09;;;;;;;0.70;0.70;;;6.80;99.90;;;;;;4993544;28;20505;-68
2022/02/22 10:46:37;;;;;;;1.57;1.20;;;7.10;99.90;;;;;;4993321;28;20424;-66
2022/02/22 10:49:09;;;;;;;2.90;1.40;;;7.00;99.90;;;;;;4992919;28;20938;-67
2022/02/22 10:51:44;;;;;;;3.63;1.40;;;6.80;99.90;;;;;;4974169;28;20433;-68
2022/02/22 10:54:18;;;;;;;1.90;1.70;;;6.70;99.90;;;;;;4992238;28;20478;-67
2022/02/22 10:56:44;;;;;;;3.80;1.10;;;6.80;99.90;;;;;;4993360;28;20750;-68
2022/02/22 10:59:09;;;;;;;1.90;1.03;;;6.60;99.90;;;;;;4993459;28;20400;-67
2022/02/22 11:01:36;;;;;;;2.10;1.60;;;6.70;99.90;;;;;;4993001;28;20590;-66
2022/02/22 11:04:02;;;;;;;4.90;2.30;;;6.60;99.90;;;;;;4993379;28;20219;-67
2022/02/22 11:06:28;;;;;;;1.70;1.40;;;6.60;99.90;;;;;;4993322;28;20436;-67
2022/02/22 11:08:55;;;;;;;4.80;1.50;;;6.60;99.90;;;;;;4993333;28;20889;-67
2022/02/22 11:11:44;;;;;;;2.13;1.07;;;6.60;99.90;;;;;;4993246;28;20204;-67
2022/02/22 11:14:17;;;;;;;2.50;2.30;;;6.40;99.90;;;;;;4993288;28;20407;-67
2022/02/22 11:16:44;;;;;;;1.53;0.80;;;6.30;99.90;;;;;;4977469;28;20775;-68
2022/02/22 11:19:20;;;;;;;1.60;1.27;;;6.30;99.90;;;;;;4998039;28;20432;-68
2022/02/22 11:21:54;;;;;;;0.90;0.90;;;6.30;99.90;;;;;;4996182;28;20518;-68
2022/02/22 11:24:21;;;;;;;4.30;1.73;;;6.30;99.90;;;;;;4995499;28;20507;-67
2022/02/22 11:26:53;;;;;;;1.30;0.83;;;6.30;99.90;;;;;;4993768;28;20954;-67
2022/02/22 11:29:21;;;;;;;5.93;1.33;;;6.20;99.90;;;;;;4992720;28;20911;-68
2022/02/22 11:32:07;;;;;;;0.60;0.60;;;6.30;99.90;;;;;;4992391;28;20550;-67
2022/02/22 11:34:38;;;;;;;15.30;1.23;;;6.40;99.90;;;;;;4992882;28;20412;-67
2022/02/22 11:37:09;;;;;;;0.70;0.70;;;6.50;99.90;;;;;;4992704;28;20408;-68
2022/02/22 11:39:51;;;;;;;2.80;0.97;;;6.40;99.90;;;;;;4992975;28;20435;-70
2022/02/22 11:42:28;;;;;;;3.07;2.83;;;6.50;99.90;;;;;;4992710;28;20443;-69
2022/02/22 11:44:57;;;;;;;4.13;2.10;;;6.70;99.90;;;;;;4992834;28;20507;-69
2022/02/22 11:47:22;;;;;;;2.67;1.40;;;6.70;99.90;;;;;;4992502;28;20424;-70
2022/02/22 11:49:50;;;;;;;4.97;1.60;;;6.80;99.90;;;;;;4992072;28;21013;-70
2022/02/22 11:52:16;;;;;;;5.20;0.90;;;6.80;99.90;;;;;;4993085;28;20786;-69
2022/02/22 11:54:43;;;;;;;34.93;20.40;;;7.00;99.90;;;;;;4993147;28;20411;-68
2022/02/22 11:57:11;;;;;;;3.43;1.93;;;7.70;99.90;;;;;;4992791;28;20279;-68
2022/02/22 11:59:52;;;;;;;4.00;1.90;;;7.50;99.90;;;;;;4992681;28;20780;-67
2022/02/22 12:02:41;;;;;;;3.13;1.00;;;7.10;99.90;;;;;;4992869;28;20431;-68
2022/02/22 12:05:26;;;;;;;1.90;1.17;;;7.10;99.90;;;;;;4993639;28;20416;-68
2022/02/22 12:08:10;;;;;;;4.93;1.47;;;7.10;99.90;;;;;;4993705;28;20403;-68
2022/02/22 12:10:53;;;;;;;2.93;1.00;;;6.90;99.90;;;;;;4994159;28;20459;-68
2022/02/22 12:13:21;;;;;;;0.70;0.70;;;7.10;99.90;;;;;;4992391;28;20475;-68
2022/02/22 12:15:47;;;;;;;4.60;1.80;;;7.00;99.90;;;;;;4992164;28;20819;-68
2022/02/22 12:18:15;;;;;;;1.10;1.00;;;7.20;99.90;;;;;;4992002;28;20456;-67
2022/02/22 12:20:41;;;;;;;2.00;0.80;;;7.30;99.90;;;;;;4992113;28;20408;-72
2022/02/22 12:23:07;;;;;;;1.97;1.17;;;7.10;99.90;;;;;;4992172;28;20436;-70
2022/02/22 12:25:33;;;;;;;4.93;1.10;;;7.30;99.90;;;;;;4992064;28;20423;-66
2022/02/22 12:28:04;;;;;;;1.90;1.10;;;7.50;99.90;;;;;;4995390;28;20177;-66
2022/02/22 12:30:34;;;;;;;3.30;1.47;;;7.60;99.90;;;;;;4992028;28;20456;-67
2022/02/22 12:33:00;;;;;;;1.97;1.87;;;7.50;99.90;;;;;;5008654;23;20494;-73
2022/02/22 12:35:38;;;;;;;6.13;1.70;;;7.60;99.90;;;;;;5004864;28;20495;-73
2022/02/22 12:38:17;;;;;;;4.63;2.60;;;7.50;99.90;;;;;;4995926;28;20409;-73
2022/02/22 12:40:43;;;;;;;4.93;1.80;;;7.80;99.90;;;;;;4974420;28;20410;-72
2022/02/22 12:43:11;;;;;;;2.73;1.60;;;7.90;99.90;;;;;;4992681;28;20459;-73
2022/02/22 12:45:51;;;;;;;4.50;1.50;;;8.00;99.90;;;;;;4993153;28;20419;-73
2022/02/22 12:48:21;;;;;;;3.40;1.67;;;7.90;99.90;;;;;;4992886;28;20415;-73
2022/02/22 12:50:53;;;;;;;5.80;1.60;;;7.90;99.90;;;;;;4990983;28;20467;-73
2022/02/22 12:53:26;;;;;;;3.63;1.50;;;7.70;99.90;;;;;;4992355;28;20428;-72
2022/02/22 12:55:52;;;;;;;3.30;1.50;;;7.70;99.90;;;;;;4992238;28;20404;-72